sensor_id;sensor_type;location;lat;lon;timestamp;pressure;altitude;pressure_sealevel;temperature;humidity
35551;BME280;21655;46.056;13.616;2023-05-25T00:00:13;100394.44;;;19.90;100.00
35551;BME280;21655;46.056;13.616;2023-05-25T00:02:40;100390.19;;;19.87;100.00
35551;BME280;21655;46.056;13.616;2023-05-25T00:05:09;100383.19;;;19.90;100.00
35551;BME280;21655;46.056;13.616;2023-05-25T00:07:35;100386.16;;;19.95;100.00
35551;BME280;21655;46.056;13.616;2023-05-25T00:10:01;100379.06;;;19.92;100.00
35551;BME280;21655;46.056;13.616;2023-05-25T00:12:26;100383.22;;;20.01;100.00
35551;BME280;21655;46.056;13.616;2023-05-25T00:14:52;100385.69;;;19.98;100.00
35551;BME280;21655;46.056;13.616;2023-05-25T00:17:17;100385.63;;;20.04;100.00
35551;BME280;21655;46.056;13.616;2023-05-25T00:19:43;100388.31;;;20.11;100.00
35551;BME280;21655;46.056;13.616;2023-05-25T00:22:10;100396.28;;;20.14;100.00
35551;BME280;21655;46.056;13.616;2023-05-25T00:24:35;100395.41;;;20.13;100.00
35551;BME280;21655;46.056;13.616;2023-05-25T00:27:01;100395.91;;;20.22;100.00
35551;BME280;21655;46.056;13.616;2023-05-25T00:29:27;100396.53;;;20.24;100.00
35551;BME280;21655;46.056;13.616;2023-05-25T00:31:53;100400.22;;;20.24;100.00
35551;BME280;21655;46.056;13.616;2023-05-25T00:34:18;100392.63;;;20.25;100.00
35551;BME280;21655;46.056;13.616;2023-05-25T00:36:44;100403.25;;;20.23;100.00
35551;BME280;21655;46.056;13.616;2023-05-25T00:39:17;100400.44;;;20.23;100.00
35551;BME280;21655;46.056;13.616;2023-05-25T00:41:43;100401.56;;;20.22;100.00
35551;BME280;21655;46.056;13.616;2023-05-25T00:44:10;100406.09;;;20.23;100.00
35551;BME280;21655;46.056;13.616;2023-05-25T00:46:46;100395.69;;;20.23;100.00
35551;BME280;21655;46.056;13.616;2023-05-25T00:49:16;100400.09;;;20.19;100.00
35551;BME280;21655;46.056;13.616;2023-05-25T00:51:42;100398.63;;;20.17;100.00
35551;BME280;21655;46.056;13.616;2023-05-25T00:54:11;100407.56;;;20.14;100.00
35551;BME280;21655;46.056;13.616;2023-05-25T00:56:39;100403.63;;;20.15;100.00
35551;BME280;21655;46.056;13.616;2023-05-25T00:59:06;100390.16;;;20.17;100.00
35551;BME280;21655;46.056;13.616;2023-05-25T01:01:34;100397.91;;;20.21;100.00
35551;BME280;21655;46.056;13.616;2023-05-25T01:04:06;100389.19;;;20.23;100.00
35551;BME280;21655;46.056;13.616;2023-05-25T01:06:35;100403.03;;;20.24;100.00
35551;BME280;21655;46.056;13.616;2023-05-25T01:09:03;100404.63;;;20.20;100.00
35551;BME280;21655;46.056;13.616;2023-05-25T01:11:35;100406.19;;;20.16;100.00
35551;BME280;21655;46.056;13.616;2023-05-25T01:14:01;100407.66;;;20.19;100.00
35551;BME280;21655;46.056;13.616;2023-05-25T01:16:27;100407.88;;;20.06;100.00
35551;BME280;21655;46.056;13.616;2023-05-25T01:18:53;100417.75;;;19.97;100.00
35551;BME280;21655;46.056;13.616;2023-05-25T01:21:30;100410.53;;;20.01;100.00
35551;BME280;21655;46.056;13.616;2023-05-25T01:24:07;100421.19;;;19.99;100.00
35551;BME280;21655;46.056;13.616;2023-05-25T01:26:41;100418.84;;;19.96;100.00
35551;BME280;21655;46.056;13.616;2023-05-25T01:29:10;100418.69;;;19.91;100.00
35551;BME280;21655;46.056;13.616;2023-05-25T01:31:36;100414.78;;;19.92;100.00
35551;BME280;21655;46.056;13.616;2023-05-25T01:34:03;100415.25;;;19.89;100.00
35551;BME280;21655;46.056;13.616;2023-05-25T01:36:29;100418.78;;;19.84;100.00
35551;BME280;21655;46.056;13.616;2023-05-25T01:38:56;100413.41;;;19.83;100.00
35551;BME280;21655;46.056;13.616;2023-05-25T01:41:22;100408.41;;;19.85;100.00
35551;BME280;21655;46.056;13.616;2023-05-25T01:43:47;100419.88;;;19.83;100.00
35551;BME280;21655;46.056;13.616;2023-05-25T01:46:23;100418.25;;;19.76;100.00
35551;BME280;21655;46.056;13.616;2023-05-25T01:48:58;100418.72;;;19.73;100.00
35551;BME280;21655;46.056;13.616;2023-05-25T01:51:38;100424.53;;;19.78;100.00
35551;BME280;21655;46.056;13.616;2023-05-25T01:54:18;100421.94;;;19.76;100.00
35551;BME280;21655;46.056;13.616;2023-05-25T01:56:46;100421.31;;;19.74;100.00
35551;BME280;21655;46.056;13.616;2023-05-25T01:59:15;100423.53;;;19.72;100.00
35551;BME280;21655;46.056;13.616;2023-05-25T02:01:44;100428.53;;;19.70;100.00
35551;BME280;21655;46.056;13.616;2023-05-25T02:04:10;100430.66;;;19.57;100.00
35551;BME280;21655;46.056;13.616;2023-05-25T02:06:35;100427.75;;;19.63;100.00
35551;BME280;21655;46.056;13.616;2023-05-25T02:09:01;100441.69;;;19.58;100.00
35551;BME280;21655;46.056;13.616;2023-05-25T02:11:27;100438.72;;;19.53;100.00
35551;BME280;21655;46.056;13.616;2023-05-25T02:13:52;100443.69;;;19.51;100.00
35551;BME280;21655;46.056;13.616;2023-05-25T02:16:17;100439.56;;;19.54;100.00
35551;BME280;21655;46.056;13.616;2023-05-25T02:18:43;100448.00;;;19.54;100.00
35551;BME280;21655;46.056;13.616;2023-05-25T02:21:09;100444.34;;;19.53;100.00
35551;BME280;21655;46.056;13.616;2023-05-25T02:23:34;100444.09;;;19.37;100.00
35551;BME280;21655;46.056;13.616;2023-05-25T02:26:00;100447.78;;;19.37;100.00
35551;BME280;21655;46.056;13.616;2023-05-25T02:28:25;100450.19;;;19.52;100.00
35551;BME280;21655;46.056;13.616;2023-05-25T02:30:51;100446.81;;;19.61;100.00
35551;BME280;21655;46.056;13.616;2023-05-25T02:33:16;100449.88;;;19.60;100.00
35551;BME280;21655;46.056;13.616;2023-05-25T02:35:43;100456.34;;;19.60;100.00
35551;BME280;21655;46.056;13.616;2023-05-25T02:38:08;100455.97;;;19.57;100.00
35551;BME280;21655;46.056;13.616;2023-05-25T02:40:34;100459.50;;;19.52;100.00
35551;BME280;21655;46.056;13.616;2023-05-25T02:42:59;100464.75;;;19.49;100.00
35551;BME280;21655;46.056;13.616;2023-05-25T02:45:25;100466.53;;;19.43;100.00
35551;BME280;21655;46.056;13.616;2023-05-25T02:47:50;100472.00;;;19.38;100.00
35551;BME280;21655;46.056;13.616;2023-05-25T02:50:16;100464.28;;;19.34;100.00
35551;BME280;21655;46.056;13.616;2023-05-25T02:52:41;100473.56;;;19.34;100.00
35551;BME280;21655;46.056;13.616;2023-05-25T02:55:07;100468.03;;;19.28;100.00
35551;BME280;21655;46.056;13.616;2023-05-25T02:57:34;100471.47;;;19.30;100.00
35551;BME280;21655;46.056;13.616;2023-05-25T03:00:01;100474.50;;;19.28;100.00
35551;BME280;21655;46.056;13.616;2023-05-25T03:02:27;100470.59;;;19.29;100.00
35551;BME280;21655;46.056;13.616;2023-05-25T03:04:53;100472.72;;;19.34;100.00
35551;BME280;21655;46.056;13.616;2023-05-25T03:07:19;100476.84;;;19.31;100.00
35551;BME280;21655;46.056;13.616;2023-05-25T03:09:45;100477.31;;;19.28;100.00
35551;BME280;21655;46.056;13.616;2023-05-25T03:12:11;100480.13;;;19.28;100.00
35551;BME280;21655;46.056;13.616;2023-05-25T03:14:36;100477.78;;;19.25;100.00
35551;BME280;21655;46.056;13.616;2023-05-25T03:17:01;100477.72;;;19.32;100.00
35551;BME280;21655;46.056;13.616;2023-05-25T03:19:27;100475.75;;;19.32;100.00
35551;BME280;21655;46.056;13.616;2023-05-25T03:21:52;100470.84;;;19.28;100.00
35551;BME280;21655;46.056;13.616;2023-05-25T03:24:17;100481.84;;;19.29;100.00
35551;BME280;21655;46.056;13.616;2023-05-25T03:26:43;100475.19;;;19.24;100.00
35551;BME280;21655;46.056;13.616;2023-05-25T03:29:08;100478.22;;;19.04;100.00
35551;BME280;21655;46.056;13.616;2023-05-25T03:31:34;100487.88;;;19.08;100.00
35551;BME280;21655;46.056;13.616;2023-05-25T03:34:01;100487.78;;;19.21;100.00
35551;BME280;21655;46.056;13.616;2023-05-25T03:36:27;100485.75;;;19.28;100.00
35551;BME280;21655;46.056;13.616;2023-05-25T03:38:55;100488.97;;;19.32;100.00
35551;BME280;21655;46.056;13.616;2023-05-25T03:41:20;100491.38;;;19.28;100.00
35551;BME280;21655;46.056;13.616;2023-05-25T03:43:46;100500.03;;;19.27;100.00
35551;BME280;21655;46.056;13.616;2023-05-25T03:46:11;100510.44;;;19.26;100.00
35551;BME280;21655;46.056;13.616;2023-05-25T03:48:37;100507.47;;;19.39;100.00
35551;BME280;21655;46.056;13.616;2023-05-25T03:51:02;100514.19;;;19.38;100.00
35551;BME280;21655;46.056;13.616;2023-05-25T03:53:28;100505.03;;;19.43;100.00
35551;BME280;21655;46.056;13.616;2023-05-25T03:55:54;100519.09;;;19.43;100.00
35551;BME280;21655;46.056;13.616;2023-05-25T03:58:19;100521.38;;;19.34;100.00
35551;BME280;21655;46.056;13.616;2023-05-25T04:00:45;100521.75;;;19.38;100.00
35551;BME280;21655;46.056;13.616;2023-05-25T04:03:13;100528.50;;;19.37;100.00
35551;BME280;21655;46.056;13.616;2023-05-25T04:05:38;100517.03;;;19.38;100.00
35551;BME280;21655;46.056;13.616;2023-05-25T04:08:04;100528.19;;;19.45;100.00
35551;BME280;21655;46.056;13.616;2023-05-25T04:10:30;100525.28;;;19.51;100.00
35551;BME280;21655;46.056;13.616;2023-05-25T04:12:56;100522.78;;;19.61;100.00
35551;BME280;21655;46.056;13.616;2023-05-25T04:15:21;100527.03;;;19.52;100.00
35551;BME280;21655;46.056;13.616;2023-05-25T04:17:47;100526.47;;;19.44;100.00
35551;BME280;21655;46.056;13.616;2023-05-25T04:20:12;100529.66;;;19.47;100.00
35551;BME280;21655;46.056;13.616;2023-05-25T04:22:38;100537.47;;;19.45;100.00
35551;BME280;21655;46.056;13.616;2023-05-25T04:25:06;100540.69;;;19.49;100.00
35551;BME280;21655;46.056;13.616;2023-05-25T04:27:32;100530.63;;;19.59;100.00
35551;BME280;21655;46.056;13.616;2023-05-25T04:29:57;100534.03;;;19.61;100.00
35551;BME280;21655;46.056;13.616;2023-05-25T04:32:23;100545.31;;;19.61;100.00
35551;BME280;21655;46.056;13.616;2023-05-25T04:34:49;100540.69;;;19.67;100.00
35551;BME280;21655;46.056;13.616;2023-05-25T04:37:15;100556.47;;;19.68;100.00
35551;BME280;21655;46.056;13.616;2023-05-25T04:39:41;100554.44;;;19.75;100.00
35551;BME280;21655;46.056;13.616;2023-05-25T04:42:07;100555.38;;;19.69;100.00
35551;BME280;21655;46.056;13.616;2023-05-25T04:44:32;100553.66;;;19.68;100.00
35551;BME280;21655;46.056;13.616;2023-05-25T04:46:58;100563.84;;;19.69;100.00
35551;BME280;21655;46.056;13.616;2023-05-25T04:49:27;100556.63;;;19.73;100.00
35551;BME280;21655;46.056;13.616;2023-05-25T04:51:52;100563.53;;;19.77;100.00
35551;BME280;21655;46.056;13.616;2023-05-25T04:54:18;100560.59;;;20.01;100.00
35551;BME280;21655;46.056;13.616;2023-05-25T04:56:43;100574.44;;;20.21;100.00
35551;BME280;21655;46.056;13.616;2023-05-25T04:59:09;100577.53;;;20.49;100.00
35551;BME280;21655;46.056;13.616;2023-05-25T05:01:35;100572.44;;;20.69;100.00
35551;BME280;21655;46.056;13.616;2023-05-25T05:04:08;100576.59;;;20.84;100.00
35551;BME280;21655;46.056;13.616;2023-05-25T05:06:33;100581.47;;;20.89;100.00
35551;BME280;21655;46.056;13.616;2023-05-25T05:08:59;100577.09;;;21.04;100.00
35551;BME280;21655;46.056;13.616;2023-05-25T05:11:26;100576.75;;;21.23;100.00
35551;BME280;21655;46.056;13.616;2023-05-25T05:13:53;100571.88;;;21.30;100.00
35551;BME280;21655;46.056;13.616;2023-05-25T05:16:18;100574.06;;;21.51;100.00
35551;BME280;21655;46.056;13.616;2023-05-25T05:18:44;100575.03;;;21.57;100.00
35551;BME280;21655;46.056;13.616;2023-05-25T05:21:09;100567.59;;;21.62;100.00
35551;BME280;21655;46.056;13.616;2023-05-25T05:23:35;100581.56;;;21.80;100.00
35551;BME280;21655;46.056;13.616;2023-05-25T05:26:01;100581.44;;;21.87;100.00
35551;BME280;21655;46.056;13.616;2023-05-25T05:28:29;100585.06;;;22.10;100.00
35551;BME280;21655;46.056;13.616;2023-05-25T05:30:54;100578.19;;;22.06;100.00
35551;BME280;21655;46.056;13.616;2023-05-25T05:33:20;100578.88;;;22.25;100.00
35551;BME280;21655;46.056;13.616;2023-05-25T05:35:47;100589.63;;;22.11;100.00
35551;BME280;21655;46.056;13.616;2023-05-25T05:38:13;100595.03;;;22.52;100.00
35551;BME280;21655;46.056;13.616;2023-05-25T05:40:38;100584.69;;;22.58;100.00
35551;BME280;21655;46.056;13.616;2023-05-25T05:43:04;100592.72;;;22.77;100.00
35551;BME280;21655;46.056;13.616;2023-05-25T05:45:30;100595.75;;;22.59;100.00
35551;BME280;21655;46.056;13.616;2023-05-25T05:47:56;100593.75;;;22.88;100.00
35551;BME280;21655;46.056;13.616;2023-05-25T05:50:21;100584.09;;;22.72;100.00
35551;BME280;21655;46.056;13.616;2023-05-25T05:52:47;100591.59;;;22.78;100.00
35551;BME280;21655;46.056;13.616;2023-05-25T05:55:12;100588.38;;;23.02;100.00
35551;BME280;21655;46.056;13.616;2023-05-25T05:57:38;100584.94;;;23.01;100.00
35551;BME280;21655;46.056;13.616;2023-05-25T06:00:03;100582.56;;;23.09;100.00
35551;BME280;21655;46.056;13.616;2023-05-25T06:02:30;100596.59;;;22.88;100.00
35551;BME280;21655;46.056;13.616;2023-05-25T06:04:56;100604.06;;;23.10;100.00
35551;BME280;21655;46.056;13.616;2023-05-25T06:07:22;100602.59;;;23.07;100.00
35551;BME280;21655;46.056;13.616;2023-05-25T06:09:47;100606.84;;;23.38;100.00
35551;BME280;21655;46.056;13.616;2023-05-25T06:12:12;100606.78;;;23.33;100.00
35551;BME280;21655;46.056;13.616;2023-05-25T06:14:38;100602.81;;;23.67;100.00
35551;BME280;21655;46.056;13.616;2023-05-25T06:17:04;100603.78;;;23.56;100.00
35551;BME280;21655;46.056;13.616;2023-05-25T06:19:29;100603.22;;;23.75;100.00
35551;BME280;21655;46.056;13.616;2023-05-25T06:21:55;100607.09;;;23.69;100.00
35551;BME280;21655;46.056;13.616;2023-05-25T06:24:20;100608.75;;;23.65;100.00
35551;BME280;21655;46.056;13.616;2023-05-25T06:26:45;100611.34;;;24.05;100.00
35551;BME280;21655;46.056;13.616;2023-05-25T06:29:13;100615.41;;;24.30;100.00
35551;BME280;21655;46.056;13.616;2023-05-25T06:31:39;100612.72;;;24.62;100.00
35551;BME280;21655;46.056;13.616;2023-05-25T06:34:04;100611.38;;;24.48;100.00
35551;BME280;21655;46.056;13.616;2023-05-25T06:36:29;100605.53;;;24.38;100.00
35551;BME280;21655;46.056;13.616;2023-05-25T06:38:56;100619.75;;;24.59;100.00
35551;BME280;21655;46.056;13.616;2023-05-25T06:41:22;100622.31;;;25.08;100.00
35551;BME280;21655;46.056;13.616;2023-05-25T06:43:47;100630.56;;;25.10;100.00
35551;BME280;21655;46.056;13.616;2023-05-25T06:46:12;100615.34;;;24.95;100.00
35551;BME280;21655;46.056;13.616;2023-05-25T06:48:42;100629.97;;;25.08;100.00
35551;BME280;21655;46.056;13.616;2023-05-25T06:51:07;100620.84;;;25.27;100.00
35551;BME280;21655;46.056;13.616;2023-05-25T06:53:33;100621.34;;;24.50;100.00
35551;BME280;21655;46.056;13.616;2023-05-25T06:55:58;100621.94;;;25.21;100.00
35551;BME280;21655;46.056;13.616;2023-05-25T06:58:23;100626.59;;;25.11;100.00
35551;BME280;21655;46.056;13.616;2023-05-25T07:00:49;100638.72;;;25.59;99.21
35551;BME280;21655;46.056;13.616;2023-05-25T07:03:14;100627.78;;;25.15;100.00
35551;BME280;21655;46.056;13.616;2023-05-25T07:05:40;100642.59;;;25.80;98.44
35551;BME280;21655;46.056;13.616;2023-05-25T07:08:06;100643.69;;;26.10;95.83
35551;BME280;21655;46.056;13.616;2023-05-25T07:10:32;100645.84;;;26.35;90.01
35551;BME280;21655;46.056;13.616;2023-05-25T07:12:58;100645.75;;;26.71;86.95
35551;BME280;21655;46.056;13.616;2023-05-25T07:15:23;100643.19;;;26.70;85.18
35551;BME280;21655;46.056;13.616;2023-05-25T07:17:49;100643.88;;;26.40;85.37
35551;BME280;21655;46.056;13.616;2023-05-25T07:20:14;100643.72;;;26.15;84.79
35551;BME280;21655;46.056;13.616;2023-05-25T07:22:41;100633.69;;;26.49;86.11
35551;BME280;21655;46.056;13.616;2023-05-25T07:25:08;100647.97;;;26.59;86.71
35551;BME280;21655;46.056;13.616;2023-05-25T07:27:33;100650.38;;;26.36;86.72
35551;BME280;21655;46.056;13.616;2023-05-25T07:30:00;100654.00;;;26.21;84.62
35551;BME280;21655;46.056;13.616;2023-05-25T07:32:25;100647.53;;;26.31;84.71
35551;BME280;21655;46.056;13.616;2023-05-25T07:34:50;100653.41;;;26.61;87.19
35551;BME280;21655;46.056;13.616;2023-05-25T07:37:16;100651.63;;;26.50;84.48
35551;BME280;21655;46.056;13.616;2023-05-25T07:39:41;100648.69;;;26.35;84.16
35551;BME280;21655;46.056;13.616;2023-05-25T07:42:06;100657.53;;;26.43;88.86
35551;BME280;21655;46.056;13.616;2023-05-25T07:44:32;100656.31;;;26.29;86.06
35551;BME280;21655;46.056;13.616;2023-05-25T07:46:57;100655.25;;;27.02;81.10
35551;BME280;21655;46.056;13.616;2023-05-25T07:49:23;100649.97;;;27.95;74.17
35551;BME280;21655;46.056;13.616;2023-05-25T07:51:48;100654.56;;;27.86;71.11
35551;BME280;21655;46.056;13.616;2023-05-25T07:54:14;100659.06;;;27.67;69.61
35551;BME280;21655;46.056;13.616;2023-05-25T07:56:39;100659.91;;;28.47;66.10
35551;BME280;21655;46.056;13.616;2023-05-25T07:59:05;100647.66;;;28.37;66.84
35551;BME280;21655;46.056;13.616;2023-05-25T08:01:30;100655.19;;;28.81;65.90
35551;BME280;21655;46.056;13.616;2023-05-25T08:03:56;100649.69;;;28.11;67.32
35551;BME280;21655;46.056;13.616;2023-05-25T08:06:21;100656.22;;;27.67;72.08
35551;BME280;21655;46.056;13.616;2023-05-25T08:08:47;100657.66;;;27.49;69.05
35551;BME280;21655;46.056;13.616;2023-05-25T08:11:14;100652.25;;;27.68;68.99
35551;BME280;21655;46.056;13.616;2023-05-25T08:13:40;100650.38;;;28.72;65.73
35551;BME280;21655;46.056;13.616;2023-05-25T08:16:06;100653.56;;;29.23;63.04
35551;BME280;21655;46.056;13.616;2023-05-25T08:18:32;100643.38;;;29.08;57.75
35551;BME280;21655;46.056;13.616;2023-05-25T08:20:58;100646.28;;;29.03;61.01
35551;BME280;21655;46.056;13.616;2023-05-25T08:23:23;100643.25;;;28.69;62.74
35551;BME280;21655;46.056;13.616;2023-05-25T08:25:48;100648.75;;;28.51;66.60
35551;BME280;21655;46.056;13.616;2023-05-25T08:28:15;100650.88;;;28.94;61.98
35551;BME280;21655;46.056;13.616;2023-05-25T08:30:40;100653.78;;;28.84;60.95
35551;BME280;21655;46.056;13.616;2023-05-25T08:33:08;100659.72;;;28.97;60.56
35551;BME280;21655;46.056;13.616;2023-05-25T08:35:34;100663.97;;;29.05;62.08
35551;BME280;21655;46.056;13.616;2023-05-25T08:38:03;100655.47;;;28.80;58.89
35551;BME280;21655;46.056;13.616;2023-05-25T08:40:28;100652.97;;;29.26;58.10
35551;BME280;21655;46.056;13.616;2023-05-25T08:42:54;100655.66;;;29.08;61.78
35551;BME280;21655;46.056;13.616;2023-05-25T08:45:19;100642.09;;;29.28;57.80
35551;BME280;21655;46.056;13.616;2023-05-25T08:47:47;100657.16;;;29.82;56.25
35551;BME280;21655;46.056;13.616;2023-05-25T08:50:13;100660.28;;;28.99;58.78
35551;BME280;21655;46.056;13.616;2023-05-25T08:52:44;100651.47;;;28.81;59.63
35551;BME280;21655;46.056;13.616;2023-05-25T08:55:11;100662.41;;;28.69;58.18
35551;BME280;21655;46.056;13.616;2023-05-25T09:00:21;100668.00;;;29.85;58.21
35551;BME280;21655;46.056;13.616;2023-05-25T09:02:58;100671.00;;;30.84;54.12
35551;BME280;21655;46.056;13.616;2023-05-25T09:05:27;100659.94;;;30.49;52.85
35551;BME280;21655;46.056;13.616;2023-05-25T09:07:53;100670.38;;;30.87;51.23
35551;BME280;21655;46.056;13.616;2023-05-25T09:10:21;100666.28;;;30.70;53.50
35551;BME280;21655;46.056;13.616;2023-05-25T09:12:48;100673.69;;;30.76;52.08
35551;BME280;21655;46.056;13.616;2023-05-25T09:15:15;100675.88;;;30.32;51.74
35551;BME280;21655;46.056;13.616;2023-05-25T09:17:41;100666.72;;;30.82;52.43
35551;BME280;21655;46.056;13.616;2023-05-25T09:20:09;100682.28;;;30.47;50.42
35551;BME280;21655;46.056;13.616;2023-05-25T09:22:34;100683.47;;;29.84;52.42
35551;BME280;21655;46.056;13.616;2023-05-25T09:25:03;100667.13;;;29.51;52.28
35551;BME280;21655;46.056;13.616;2023-05-25T09:27:34;100667.31;;;30.55;52.20
35551;BME280;21655;46.056;13.616;2023-05-25T09:30:00;100671.81;;;30.66;51.66
35551;BME280;21655;46.056;13.616;2023-05-25T09:32:26;100680.94;;;30.68;50.23
35551;BME280;21655;46.056;13.616;2023-05-25T09:34:52;100680.13;;;31.10;49.20
35551;BME280;21655;46.056;13.616;2023-05-25T09:37:20;100688.72;;;31.10;49.10
35551;BME280;21655;46.056;13.616;2023-05-25T09:39:45;100680.63;;;31.35;48.50
35551;BME280;21655;46.056;13.616;2023-05-25T09:42:12;100685.25;;;32.23;46.11
35551;BME280;21655;46.056;13.616;2023-05-25T09:44:39;100678.72;;;32.63;47.47
35551;BME280;21655;46.056;13.616;2023-05-25T09:47:05;100681.97;;;31.79;45.57
35551;BME280;21655;46.056;13.616;2023-05-25T09:49:30;100681.34;;;31.45;45.49
35551;BME280;21655;46.056;13.616;2023-05-25T09:51:56;100681.09;;;31.42;45.89
35551;BME280;21655;46.056;13.616;2023-05-25T09:54:21;100676.38;;;31.14;46.87
35551;BME280;21655;46.056;13.616;2023-05-25T09:56:47;100670.94;;;32.37;45.40
35551;BME280;21655;46.056;13.616;2023-05-25T09:59:13;100666.53;;;33.25;45.01
35551;BME280;21655;46.056;13.616;2023-05-25T10:01:39;100685.25;;;33.09;46.93
35551;BME280;21655;46.056;13.616;2023-05-25T10:04:05;100681.63;;;32.77;45.88
35551;BME280;21655;46.056;13.616;2023-05-25T10:06:31;100672.59;;;32.70;43.61
35551;BME280;21655;46.056;13.616;2023-05-25T10:08:57;100665.94;;;32.42;42.23
35551;BME280;21655;46.056;13.616;2023-05-25T10:11:23;100664.66;;;32.35;43.17
35551;BME280;21655;46.056;13.616;2023-05-25T10:13:52;100665.84;;;32.15;46.00
35551;BME280;21655;46.056;13.616;2023-05-25T10:16:17;100680.91;;;32.85;43.87
35551;BME280;21655;46.056;13.616;2023-05-25T10:21:33;100668.34;;;32.22;46.35
35551;BME280;21655;46.056;13.616;2023-05-25T10:24:05;100668.56;;;31.56;46.61
35551;BME280;21655;46.056;13.616;2023-05-25T10:26:35;100664.94;;;32.33;44.49
35551;BME280;21655;46.056;13.616;2023-05-25T10:29:05;100660.09;;;32.61;43.65
35551;BME280;21655;46.056;13.616;2023-05-25T10:31:33;100661.38;;;32.09;45.15
35551;BME280;21655;46.056;13.616;2023-05-25T10:34:02;100656.34;;;32.33;46.93
35551;BME280;21655;46.056;13.616;2023-05-25T10:36:28;100649.88;;;31.40;47.40
35551;BME280;21655;46.056;13.616;2023-05-25T10:38:55;100630.09;;;31.21;48.60
35551;BME280;21655;46.056;13.616;2023-05-25T10:41:21;100634.81;;;31.30;47.36
35551;BME280;21655;46.056;13.616;2023-05-25T10:43:47;100631.91;;;31.35;47.10
35551;BME280;21655;46.056;13.616;2023-05-25T10:46:14;100628.28;;;31.06;48.16
35551;BME280;21655;46.056;13.616;2023-05-25T10:48:48;100630.88;;;31.26;49.53
35551;BME280;21655;46.056;13.616;2023-05-25T10:51:13;100627.84;;;30.52;49.81
35551;BME280;21655;46.056;13.616;2023-05-25T10:53:43;100621.66;;;30.17;52.22
35551;BME280;21655;46.056;13.616;2023-05-25T10:56:10;100631.44;;;29.77;56.16
35551;BME280;21655;46.056;13.616;2023-05-25T10:58:40;100634.34;;;29.72;56.61
35551;BME280;21655;46.056;13.616;2023-05-25T11:01:09;100630.06;;;29.75;57.71
35551;BME280;21655;46.056;13.616;2023-05-25T11:09:23;100616.25;;;29.48;53.78
35551;BME280;21655;46.056;13.616;2023-05-25T11:19:50;100611.31;;;29.59;53.82
35551;BME280;21655;46.056;13.616;2023-05-25T11:22:33;100606.41;;;29.26;52.88
35551;BME280;21655;46.056;13.616;2023-05-25T11:28:03;100596.34;;;29.28;53.67
35551;BME280;21655;46.056;13.616;2023-05-25T11:30:29;100598.16;;;29.15;53.19
35551;BME280;21655;46.056;13.616;2023-05-25T11:32:54;100604.69;;;28.72;53.70
35551;BME280;21655;46.056;13.616;2023-05-25T11:35:24;100604.06;;;28.85;55.66
35551;BME280;21655;46.056;13.616;2023-05-25T11:37:50;100601.72;;;28.97;57.82
35551;BME280;21655;46.056;13.616;2023-05-25T11:40:21;100595.56;;;28.65;54.54
35551;BME280;21655;46.056;13.616;2023-05-25T11:42:47;100591.81;;;28.74;54.43
35551;BME280;21655;46.056;13.616;2023-05-25T11:45:14;100587.75;;;28.90;55.24
35551;BME280;21655;46.056;13.616;2023-05-25T11:47:40;100588.09;;;28.84;52.21
35551;BME280;21655;46.056;13.616;2023-05-25T11:50:06;100588.91;;;28.84;55.80
35551;BME280;21655;46.056;13.616;2023-05-25T11:52:32;100588.66;;;28.81;53.01
35551;BME280;21655;46.056;13.616;2023-05-25T11:54:57;100581.25;;;28.75;53.75
35551;BME280;21655;46.056;13.616;2023-05-25T11:57:23;100573.81;;;28.84;52.72
35551;BME280;21655;46.056;13.616;2023-05-25T11:59:51;100571.84;;;29.23;54.63
35551;BME280;21655;46.056;13.616;2023-05-25T12:02:17;100570.19;;;29.12;50.41
35551;BME280;21655;46.056;13.616;2023-05-25T12:04:57;100566.25;;;29.08;50.45
35551;BME280;21655;46.056;13.616;2023-05-25T12:07:24;100568.06;;;29.32;50.40
35551;BME280;21655;46.056;13.616;2023-05-25T12:09:50;100558.97;;;28.77;51.54
35551;BME280;21655;46.056;13.616;2023-05-25T12:12:16;100556.44;;;28.70;49.02
35551;BME280;21655;46.056;13.616;2023-05-25T12:14:48;100549.47;;;28.91;54.10
35551;BME280;21655;46.056;13.616;2023-05-25T12:17:15;100559.47;;;28.94;48.21
35551;BME280;21655;46.056;13.616;2023-05-25T12:19:41;100557.00;;;28.77;49.13
35551;BME280;21655;46.056;13.616;2023-05-25T12:22:07;100545.78;;;28.86;48.23
35551;BME280;21655;46.056;13.616;2023-05-25T12:24:33;100540.72;;;28.73;50.16
35551;BME280;21655;46.056;13.616;2023-05-25T12:26:58;100534.69;;;28.79;48.76
35551;BME280;21655;46.056;13.616;2023-05-25T12:29:26;100540.91;;;28.96;49.63
35551;BME280;21655;46.056;13.616;2023-05-25T12:31:52;100526.88;;;29.33;53.18
35551;BME280;21655;46.056;13.616;2023-05-25T12:34:26;100524.19;;;29.51;50.66
35551;BME280;21655;46.056;13.616;2023-05-25T12:36:53;100528.19;;;29.50;48.79
35551;BME280;21655;46.056;13.616;2023-05-25T12:41:53;100518.25;;;29.71;46.75
35551;BME280;21655;46.056;13.616;2023-05-25T12:46:52;100508.81;;;29.71;48.42
35551;BME280;21655;46.056;13.616;2023-05-25T12:49:29;100501.19;;;29.61;46.76
35551;BME280;21655;46.056;13.616;2023-05-25T12:51:55;100503.34;;;29.74;48.78
35551;BME280;21655;46.056;13.616;2023-05-25T12:54:43;100510.91;;;29.89;47.59
35551;BME280;21655;46.056;13.616;2023-05-25T12:59:36;100504.00;;;29.90;48.36
35551;BME280;21655;46.056;13.616;2023-05-25T13:02:04;100497.16;;;29.91;45.06